Time;durP1;ratioP1;P1;durP2;ratioP2;P2;SDS_P1;SDS_P2;PMS_P1;PMS_P2;Temp;Humidity;BMP_temperature;BMP_pressure;BME280_temperature;BME280_humidity;BME280_pressure;Samples;Min_cycle;Max_cycle;Signal;HPM_P1;HPM_P2
2023/01/18 00:00:27;;;;;;;15.40;7.95;;;-2.40;99.90;;;;;;7302029;32;20576;-61
2023/01/18 00:04:29;;;;;;;15.27;8.13;;;-2.40;99.90;;;;;;7304528;32;20151;-60
2023/01/18 00:08:32;;;;;;;19.23;7.53;;;-2.30;99.90;;;;;;7307248;32;20175;-61
2023/01/18 00:12:33;;;;;;;17.42;8.55;;;-2.30;99.90;;;;;;7306379;32;20239;-60
2023/01/18 00:16:35;;;;;;;16.62;7.90;;;-2.50;99.90;;;;;;7296905;32;20476;-60
2023/01/18 00:20:37;;;;;;;21.60;7.90;;;-2.50;99.90;;;;;;7296488;32;20131;-60
2023/01/18 00:24:39;;;;;;;14.32;7.60;;;-2.50;99.90;;;;;;7297847;32;20137;-61
2023/01/18 00:28:41;;;;;;;20.37;8.65;;;-2.50;99.90;;;;;;7297793;32;20262;-60
2023/01/18 00:32:43;;;;;;;18.92;7.85;;;-2.40;99.90;;;;;;7296085;32;20578;-60
2023/01/18 00:36:47;;;;;;;24.83;7.85;;;-2.50;99.90;;;;;;7296539;32;20167;-60
2023/01/18 00:40:49;;;;;;;15.23;7.97;;;-2.50;99.90;;;;;;7296163;32;20137;-60
2023/01/18 00:44:51;;;;;;;15.98;8.05;;;-2.50;99.90;;;;;;7298109;32;20187;-61
2023/01/18 00:48:54;;;;;;;16.70;7.72;;;-2.40;99.90;;;;;;7299304;32;20107;-60
2023/01/18 00:52:57;;;;;;;15.02;7.70;;;-2.50;99.90;;;;;;7302514;32;20246;-61
2023/01/18 00:56:59;;;;;;;18.65;8.02;;;-2.50;99.90;;;;;;7302946;32;20479;-60
2023/01/18 01:01:01;;;;;;;17.25;6.95;;;-2.60;99.90;;;;;;7300583;32;20206;-60
2023/01/18 01:09:26;;;;;;;16.80;7.87;;;-2.70;99.90;;;;;;7302617;32;20104;-60
2023/01/18 01:26:28;;;;;;;16.02;7.85;;;-2.70;99.90;;;;;;7298193;32;20525;-60
2023/01/18 01:30:30;;;;;;;16.50;7.05;;;-2.70;99.90;;;;;;7304334;32;20554;-60
2023/01/18 01:34:32;;;;;;;17.65;8.20;;;-2.70;99.90;;;;;;7302700;32;20438;-60
2023/01/18 01:38:34;;;;;;;16.00;7.93;;;-2.70;99.90;;;;;;7299194;32;20096;-61
2023/01/18 01:42:36;;;;;;;18.48;7.62;;;-2.70;99.90;;;;;;7301450;32;20320;-60
2023/01/18 01:47:04;;;;;;;17.37;7.95;;;-2.70;99.90;;;;;;7302482;32;20097;-60
2023/01/18 01:51:06;;;;;;;17.30;7.65;;;-2.80;99.90;;;;;;7299904;32;20192;-60
2023/01/18 01:55:16;;;;;;;20.30;7.65;;;-2.90;99.90;;;;;;7299157;32;20095;-60
2023/01/18 01:59:18;;;;;;;14.15;7.40;;;-2.90;99.90;;;;;;7299574;32;20131;-60
2023/01/18 02:03:23;;;;;;;18.60;8.20;;;-2.80;99.90;;;;;;7299403;32;20224;-60
2023/01/18 02:07:27;;;;;;;20.05;7.95;;;-2.80;99.90;;;;;;7300294;32;20138;-61
2023/01/18 02:11:29;;;;;;;15.48;7.65;;;-2.80;99.90;;;;;;7300420;32;20548;-60
2023/01/18 02:15:53;;;;;;;16.35;7.53;;;-2.90;99.90;;;;;;7300035;32;20702;-60
2023/01/18 02:20:30;;;;;;;14.65;8.07;;;-3.00;99.90;;;;;;7298603;32;20520;-61
2023/01/18 02:24:36;;;;;;;14.97;7.20;;;-3.10;99.90;;;;;;7298834;32;20219;-60
2023/01/18 02:28:40;;;;;;;19.15;8.27;;;-3.10;99.90;;;;;;7297432;32;20101;-60
2023/01/18 02:33:00;;;;;;;16.98;7.85;;;-3.10;99.90;;;;;;7296219;32;20368;-60
2023/01/18 02:37:05;;;;;;;16.08;7.28;;;-3.00;99.90;;;;;;7293773;32;20198;-60
2023/01/18 02:41:17;;;;;;;14.07;7.60;;;-3.00;99.90;;;;;;7295563;32;20107;-61
2023/01/18 02:49:50;;;;;;;13.98;7.75;;;-3.10;99.90;;;;;;7295687;32;20130;-60
2023/01/18 02:53:52;;;;;;;18.20;8.85;;;-3.00;99.90;;;;;;7295715;32;20187;-60
2023/01/18 02:57:59;;;;;;;17.23;8.20;;;-3.10;99.90;;;;;;7298087;32;20104;-60
2023/01/18 03:02:06;;;;;;;15.15;7.47;;;-3.10;99.90;;;;;;7291396;32;20344;-61
2023/01/18 03:06:09;;;;;;;19.83;7.72;;;-3.00;99.90;;;;;;7297108;32;20109;-61
2023/01/18 03:10:13;;;;;;;17.40;8.00;;;-3.10;99.90;;;;;;7290565;32;20552;-60
2023/01/18 03:14:36;;;;;;;15.93;7.70;;;-3.10;99.90;;;;;;7296564;32;20119;-60
2023/01/18 03:19:03;;;;;;;16.73;7.72;;;-3.10;99.90;;;;;;7295541;32;20092;-60
2023/01/18 03:36:34;;;;;;;12.98;7.25;;;-3.20;99.90;;;;;;7290745;32;20129;-60
2023/01/18 03:40:36;;;;;;;20.20;8.65;;;-3.20;99.90;;;;;;7289752;32;20527;-60
2023/01/18 03:44:51;;;;;;;13.73;7.50;;;-3.10;99.90;;;;;;7291483;32;20468;-61
2023/01/18 03:48:53;;;;;;;18.50;7.37;;;-3.20;99.90;;;;;;7291402;32;20200;-60
2023/01/18 03:53:02;;;;;;;15.00;7.57;;;-3.20;99.90;;;;;;7301951;32;20121;-60
2023/01/18 03:57:16;;;;;;;13.60;7.75;;;-3.20;99.90;;;;;;7308931;32;20482;-60
2023/01/18 04:01:19;;;;;;;16.52;7.32;;;-3.20;99.90;;;;;;7301044;32;20104;-61
2023/01/18 04:05:20;;;;;;;15.30;8.13;;;-3.30;99.90;;;;;;7296781;32;20494;-60
2023/01/18 04:09:23;;;;;;;16.10;7.82;;;-3.30;99.90;;;;;;7297258;32;20599;-60
2023/01/18 04:13:25;;;;;;;15.40;7.80;;;-3.30;99.90;;;;;;7297119;32;20204;-59
2023/01/18 04:17:27;;;;;;;18.00;7.78;;;-3.40;99.90;;;;;;7298166;32;20096;-61
2023/01/18 04:21:29;;;;;;;15.95;8.32;;;-3.30;99.90;;;;;;7298691;32;20477;-60
2023/01/18 04:25:30;;;;;;;16.40;7.53;;;-3.40;99.90;;;;;;7301623;32;20388;-60
2023/01/18 04:29:32;;;;;;;17.12;7.32;;;-3.40;99.90;;;;;;7301096;32;20682;-61
2023/01/18 04:33:34;;;;;;;16.05;7.50;;;-3.50;99.90;;;;;;7300197;32;20194;-61
2023/01/18 04:37:37;;;;;;;13.77;7.57;;;-3.50;99.90;;;;;;7300445;32;20298;-60
2023/01/18 04:41:38;;;;;;;15.18;7.07;;;-3.50;99.90;;;;;;7302446;32;20228;-60
2023/01/18 04:45:40;;;;;;;15.52;8.18;;;-3.50;99.90;;;;;;7302075;32;20200;-59
2023/01/18 04:49:42;;;;;;;14.27;7.57;;;-3.50;99.90;;;;;;7302914;32;20103;-60
2023/01/18 04:53:44;;;;;;;16.25;8.15;;;-3.50;99.90;;;;;;7298462;32;20154;-60
2023/01/18 04:57:46;;;;;;;18.90;8.27;;;-3.60;99.90;;;;;;7299317;32;20133;-60
2023/01/18 05:01:47;;;;;;;18.25;9.00;;;-3.60;99.90;;;;;;7298760;32;20154;-61
2023/01/18 05:05:49;;;;;;;18.73;10.52;;;-3.60;99.90;;;;;;7301651;32;20197;-60
2023/01/18 05:09:51;;;;;;;21.92;11.05;;;-3.50;99.90;;;;;;7302015;32;20219;-60
2023/01/18 05:13:53;;;;;;;18.12;9.82;;;-3.50;99.90;;;;;;7302804;32;20186;-62
2023/01/18 05:17:54;;;;;;;18.35;9.50;;;-3.40;99.90;;;;;;7301542;32;20104;-61
2023/01/18 05:21:56;;;;;;;18.90;9.02;;;-3.40;99.90;;;;;;7287686;32;20118;-60
2023/01/18 05:25:58;;;;;;;22.40;10.52;;;-3.40;99.90;;;;;;7301796;32;20102;-60
2023/01/18 05:30:01;;;;;;;18.70;9.90;;;-3.50;99.90;;;;;;7300328;32;20235;-60
2023/01/18 05:34:02;;;;;;;19.77;10.40;;;-3.40;99.90;;;;;;7300153;32;20281;-62
2023/01/18 05:38:04;;;;;;;16.48;9.55;;;-3.40;99.90;;;;;;7300176;32;20517;-60
2023/01/18 05:42:06;;;;;;;18.87;10.05;;;-3.50;99.90;;;;;;7301884;32;20184;-60
2023/01/18 05:46:07;;;;;;;18.45;8.98;;;-3.50;99.90;;;;;;7300912;32;20226;-60
2023/01/18 05:50:09;;;;;;;18.77;9.00;;;-3.60;99.90;;;;;;7297979;32;20341;-60
2023/01/18 05:54:12;;;;;;;23.15;9.98;;;-3.50;99.90;;;;;;7301667;32;20239;-60
2023/01/18 05:58:13;;;;;;;20.40;9.35;;;-3.50;99.90;;;;;;7299048;32;20095;-61
2023/01/18 06:02:17;;;;;;;17.87;8.77;;;-3.50;99.90;;;;;;7296850;32;20126;-61
2023/01/18 06:06:18;;;;;;;15.50;9.75;;;-3.50;99.90;;;;;;7298795;32;20100;-61
2023/01/18 06:10:20;;;;;;;21.25;9.30;;;-3.60;99.90;;;;;;7300644;32;20120;-60
2023/01/18 06:14:22;;;;;;;17.25;9.43;;;-3.60;99.90;;;;;;7301940;32;20194;-61
2023/01/18 06:18:25;;;;;;;16.40;9.15;;;-3.60;99.90;;;;;;7304627;32;20574;-60
2023/01/18 06:22:27;;;;;;;19.92;9.18;;;-3.60;99.90;;;;;;7311296;32;20127;-60
2023/01/18 06:26:30;;;;;;;23.20;9.57;;;-3.70;99.90;;;;;;7297195;32;20195;-60
2023/01/18 06:30:33;;;;;;;18.90;8.73;;;-3.70;99.90;;;;;;7308354;32;20097;-61
2023/01/18 06:34:35;;;;;;;17.48;9.75;;;-3.60;99.90;;;;;;7304681;32;20266;-62
2023/01/18 06:38:37;;;;;;;16.05;8.80;;;-3.60;99.90;;;;;;7306290;32;20145;-60
2023/01/18 06:42:40;;;;;;;14.38;8.27;;;-3.70;99.90;;;;;;7311383;32;20760;-60
2023/01/18 06:46:45;;;;;;;19.08;9.10;;;-3.70;99.90;;;;;;7304563;32;20134;-60
2023/01/18 06:50:47;;;;;;;18.70;9.88;;;-3.70;99.90;;;;;;7310805;32;20130;-60
2023/01/18 06:54:49;;;;;;;17.15;10.52;;;-3.70;99.90;;;;;;7308126;32;20096;-60
2023/01/18 06:58:50;;;;;;;20.02;11.10;;;-3.80;99.90;;;;;;7306486;32;20100;-61
2023/01/18 07:02:52;;;;;;;25.60;13.98;;;-3.70;99.90;;;;;;7306560;32;20305;-62
2023/01/18 07:07:27;;;;;;;20.25;11.02;;;-3.60;99.90;;;;;;7391942;31;20127;-60
2023/01/18 07:11:30;;;;;;;18.62;10.73;;;-3.50;99.90;;;;;;7357548;32;20141;-60
2023/01/18 07:15:31;;;;;;;19.73;10.15;;;-3.60;99.90;;;;;;7358813;32;20193;-62
2023/01/18 07:19:33;;;;;;;20.45;10.60;;;-3.60;99.90;;;;;;7362380;32;20116;-61
2023/01/18 07:23:37;;;;;;;19.08;11.02;;;-3.50;99.90;;;;;;7365565;32;20198;-60
2023/01/18 07:27:42;;;;;;;17.05;9.35;;;-3.50;99.90;;;;;;7365013;32;20193;-60
2023/01/18 07:31:43;;;;;;;17.35;10.50;;;-3.50;99.90;;;;;;7357627;32;20126;-62
2023/01/18 07:35:45;;;;;;;18.20;10.45;;;-3.60;99.90;;;;;;7365103;32;20125;-61
2023/01/18 07:39:47;;;;;;;15.95;9.32;;;-3.70;99.90;;;;;;7356748;32;20137;-62
2023/01/18 07:43:48;;;;;;;16.37;8.57;;;-3.50;99.90;;;;;;7359807;32;20780;-61
2023/01/18 07:47:52;;;;;;;15.63;9.13;;;-3.60;99.90;;;;;;7364622;32;20530;-61
2023/01/18 07:51:53;;;;;;;16.95;9.70;;;-3.60;99.90;;;;;;7359091;32;20127;-62
2023/01/18 07:56:00;;;;;;;21.02;11.23;;;-3.50;99.90;;;;;;7358620;32;20212;-62
2023/01/18 08:00:02;;;;;;;17.27;9.10;;;-3.40;99.90;;;;;;7358617;32;20438;-62
2023/01/18 08:04:04;;;;;;;17.52;9.63;;;-3.30;99.90;;;;;;7358501;32;20283;-61
2023/01/18 08:08:11;;;;;;;17.60;9.57;;;-3.40;99.90;;;;;;7349422;32;20261;-61
2023/01/18 08:12:16;;;;;;;17.83;9.48;;;-3.40;99.90;;;;;;7355376;32;20157;-63
2023/01/18 08:16:18;;;;;;;21.10;10.05;;;-3.30;99.90;;;;;;7343320;32;20183;-62
2023/01/18 08:20:20;;;;;;;16.83;9.93;;;-3.30;99.90;;;;;;7337329;32;20170;-61
2023/01/18 08:24:22;;;;;;;19.17;9.68;;;-3.20;99.90;;;;;;7350874;32;20119;-62
2023/01/18 08:28:24;;;;;;;19.23;10.65;;;-3.10;99.90;;;;;;7349309;32;20099;-62
2023/01/18 08:32:26;;;;;;;24.20;12.02;;;-3.00;99.90;;;;;;7346203;32;20216;-62
2023/01/18 08:36:27;;;;;;;22.40;12.45;;;-3.00;99.90;;;;;;7349905;32;20107;-62
2023/01/18 08:40:29;;;;;;;29.20;13.02;;;-3.00;99.90;;;;;;7347551;32;20119;-63
2023/01/18 08:44:31;;;;;;;30.17;15.93;;;-3.00;99.90;;;;;;7351855;32;20112;-62
2023/01/18 08:48:33;;;;;;;22.77;13.32;;;-2.90;99.90;;;;;;7346134;32;20261;-65
2023/01/18 08:52:35;;;;;;;30.85;14.35;;;-2.80;99.90;;;;;;7341262;32;20850;-61
2023/01/18 08:56:37;;;;;;;28.12;14.07;;;-2.70;99.90;;;;;;7342865;32;20328;-62
2023/01/18 09:00:38;;;;;;;28.42;15.52;;;-2.60;99.90;;;;;;7336347;32;20131;-61
2023/01/18 09:04:41;;;;;;;29.37;16.42;;;-2.40;99.90;;;;;;7348781;32;20186;-61
2023/01/18 09:08:46;;;;;;;27.50;15.07;;;-2.30;99.90;;;;;;7340340;32;20746;-62
2023/01/18 09:12:48;;;;;;;30.73;15.63;;;-2.10;99.90;;;;;;7342727;32;20234;-62
2023/01/18 09:16:51;;;;;;;33.67;16.00;;;-2.00;99.90;;;;;;7343467;32;20168;-61
2023/01/18 09:20:53;;;;;;;33.75;17.05;;;-1.80;99.90;;;;;;7346554;32;20225;-62
2023/01/18 09:24:56;;;;;;;35.70;17.23;;;-1.60;99.90;;;;;;7348060;32;20619;-61
2023/01/18 09:28:58;;;;;;;32.42;17.37;;;-1.40;99.90;;;;;;7344595;32;20111;-61
2023/01/18 09:32:59;;;;;;;32.95;17.17;;;-1.30;99.90;;;;;;7345447;32;20116;-62
2023/01/18 09:37:02;;;;;;;25.60;16.30;;;-1.20;99.90;;;;;;7347694;32;20134;-61
2023/01/18 09:41:21;;;;;;;28.38;17.33;;;-1.00;99.90;;;;;;7341561;32;20131;-62
2023/01/18 09:45:28;;;;;;;29.27;16.98;;;-0.90;99.90;;;;;;7341693;32;20129;-62
2023/01/18 09:49:53;;;;;;;27.40;16.70;;;-0.80;99.90;;;;;;7343642;32;20231;-61
2023/01/18 09:54:07;;;;;;;27.50;16.65;;;-0.70;99.90;;;;;;7344708;32;20262;-61
2023/01/18 09:58:23;;;;;;;24.70;16.15;;;-0.60;99.90;;;;;;7337686;32;20225;-62
2023/01/18 10:02:34;;;;;;;27.67;16.80;;;-0.50;99.90;;;;;;7337422;32;20558;-62
2023/01/18 10:06:47;;;;;;;25.70;15.50;;;-0.20;99.90;;;;;;7335268;32;20217;-63
2023/01/18 10:10:56;;;;;;;28.70;15.43;;;0.00;99.90;;;;;;7336806;32;20384;-63
2023/01/18 10:15:12;;;;;;;26.27;15.52;;;-0.10;99.90;;;;;;7341510;32;20132;-61
2023/01/18 10:19:20;;;;;;;32.25;15.23;;;0.00;99.90;;;;;;7341815;32;20405;-62
2023/01/18 10:23:35;;;;;;;26.45;15.18;;;0.00;99.90;;;;;;7340648;32;20136;-61
2023/01/18 10:27:54;;;;;;;29.60;15.85;;;0.00;99.90;;;;;;7343639;32;20100;-62
2023/01/18 10:32:08;;;;;;;25.42;15.15;;;0.10;99.90;;;;;;7342391;32;20194;-63
2023/01/18 10:36:18;;;;;;;26.50;15.55;;;0.10;99.90;;;;;;7337679;32;20111;-61
2023/01/18 10:40:21;;;;;;;22.23;15.45;;;0.20;99.90;;;;;;7342480;32;20099;-61
2023/01/18 10:44:23;;;;;;;29.17;15.30;;;0.30;99.90;;;;;;7337853;32;20156;-62
2023/01/18 10:48:31;;;;;;;25.92;15.25;;;0.30;99.90;;;;;;7340711;32;20103;-61
2023/01/18 10:52:33;;;;;;;25.92;14.68;;;0.30;99.90;;;;;;7338964;32;20128;-62
2023/01/18 10:56:35;;;;;;;27.05;14.73;;;0.30;99.90;;;;;;7340617;32;20107;-61
2023/01/18 11:00:36;;;;;;;32.17;15.65;;;0.40;99.90;;;;;;7338189;32;20186;-61
2023/01/18 11:04:40;;;;;;;27.67;16.08;;;0.40;99.90;;;;;;7333231;32;20180;-61
2023/01/18 11:08:42;;;;;;;29.87;16.45;;;0.30;99.90;;;;;;7328233;32;20121;-62
2023/01/18 11:12:47;;;;;;;26.48;15.95;;;0.40;99.90;;;;;;7332809;32;20218;-62
2023/01/18 11:16:58;;;;;;;23.75;14.90;;;0.50;99.90;;;;;;7331125;32;20130;-61
2023/01/18 11:21:00;;;;;;;25.90;15.15;;;0.50;99.90;;;;;;7331456;32;20106;-61
2023/01/18 11:25:03;;;;;;;28.25;15.23;;;0.70;99.90;;;;;;7335798;32;20135;-61
2023/01/18 11:29:06;;;;;;;23.77;14.75;;;0.70;99.90;;;;;;7334704;32;20186;-61
2023/01/18 11:33:17;;;;;;;27.62;15.30;;;0.70;99.90;;;;;;7338581;32;20108;-62
2023/01/18 11:37:35;;;;;;;23.48;14.23;;;0.80;99.90;;;;;;7327539;32;20294;-61
2023/01/18 11:41:37;;;;;;;24.10;14.40;;;0.90;99.90;;;;;;7336410;32;20111;-61
2023/01/18 11:45:53;;;;;;;28.02;14.65;;;1.00;99.90;;;;;;7334470;32;20428;-61
2023/01/18 11:50:04;;;;;;;25.88;13.60;;;1.10;99.90;;;;;;7331855;32;20172;-62
2023/01/18 11:54:31;;;;;;;;;;;1.20;99.90;;;;;;7336299;32;20094;-61
2023/01/18 11:58:34;;;;;;;23.67;13.82;;;1.30;99.90;;;;;;7335025;32;20082;-61
2023/01/18 12:02:46;;;;;;;21.73;12.70;;;1.30;99.90;;;;;;7338345;32;20194;-62
2023/01/18 12:07:02;;;;;;;21.08;12.73;;;1.30;99.90;;;;;;7338531;32;20222;-62
2023/01/18 12:11:37;;;;;;;15.70;8.18;;;1.40;99.90;;;;;;7336360;32;20466;-62
2023/01/18 12:15:50;;;;;;;24.08;12.55;;;1.60;99.90;;;;;;7344514;32;20111;-62
2023/01/18 12:20:24;;;;;;;23.25;12.70;;;1.70;99.90;;;;;;7339384;32;20111;-62
2023/01/18 12:24:56;;;;;;;27.45;13.80;;;1.70;99.90;;;;;;7343317;32;20125;-61
2023/01/18 12:29:23;;;;;;;21.10;12.15;;;1.80;99.90;;;;;;7343219;32;20126;-61
2023/01/18 12:34:02;;;;;;;20.48;12.30;;;1.90;99.90;;;;;;7349050;32;20129;-61
2023/01/18 12:38:23;;;;;;;20.50;11.93;;;1.90;99.90;;;;;;7344491;32;20138;-62
2023/01/18 12:43:04;;;;;;;19.70;12.55;;;1.90;99.90;;;;;;7346784;32;20132;-62
2023/01/18 12:47:38;;;;;;;23.85;12.45;;;2.00;99.90;;;;;;7340150;32;20104;-63
2023/01/18 12:51:40;;;;;;;27.10;13.50;;;2.10;99.90;;;;;;7333022;32;20237;-62
2023/01/18 12:55:46;;;;;;;20.73;12.88;;;2.20;99.90;;;;;;7336033;32;20265;-64
2023/01/18 13:00:17;;;;;;;21.87;11.88;;;2.30;99.90;;;;;;7330874;32;20907;-63
2023/01/18 13:04:43;;;;;;;18.62;11.95;;;2.30;99.90;;;;;;7342073;32;20289;-62
2023/01/18 13:08:59;;;;;;;20.37;11.00;;;2.40;99.90;;;;;;7330412;32;20549;-61
2023/01/18 13:13:04;;;;;;;20.15;10.57;;;2.50;99.90;;;;;;7346695;32;20111;-62
2023/01/18 13:17:27;;;;;;;16.05;9.35;;;2.50;99.90;;;;;;7337420;32;20211;-63
2023/01/18 13:22:10;;;;;;;14.95;8.57;;;2.70;99.90;;;;;;7344363;32;20126;-62
2023/01/18 13:26:27;;;;;;;18.15;8.05;;;2.80;99.90;;;;;;7335965;32;20741;-63
2023/01/18 13:30:32;;;;;;;14.32;7.68;;;2.80;99.90;;;;;;7334060;32;20096;-63
2023/01/18 13:34:36;;;;;;;14.15;6.72;;;2.90;99.90;;;;;;7337169;32;20484;-63
2023/01/18 13:39:06;;;;;;;9.32;6.37;;;2.90;99.90;;;;;;7336313;32;20307;-64
2023/01/18 13:43:26;;;;;;;12.37;6.20;;;3.00;99.90;;;;;;7344424;32;20183;-64
2023/01/18 13:47:34;;;;;;;13.50;6.53;;;3.30;99.90;;;;;;7332593;32;20552;-63
2023/01/18 13:51:39;;;;;;;11.82;6.62;;;3.50;99.90;;;;;;7325077;32;20194;-62
2023/01/18 13:55:59;;;;;;;10.43;5.93;;;3.60;99.90;;;;;;7333464;32;20215;-63
2023/01/18 14:00:02;;;;;;;11.73;6.22;;;3.50;99.90;;;;;;7330729;32;20326;-64
2023/01/18 14:04:22;;;;;;;10.82;5.43;;;3.50;99.90;;;;;;7327092;32;20671;-64
2023/01/18 14:08:29;;;;;;;10.57;5.40;;;3.50;99.90;;;;;;7329070;32;20993;-63
2023/01/18 14:12:47;;;;;;;;;;;3.50;99.90;;;;;;7334714;32;20128;-63
2023/01/18 14:17:07;;;;;;;;;;;4.00;99.90;;;;;;7328833;32;20117;-63
2023/01/18 14:21:14;;;;;;;8.25;4.60;;;4.50;99.90;;;;;;7331840;32;20125;-64
2023/01/18 14:25:52;;;;;;;11.50;5.82;;;4.90;99.90;;;;;;7326597;32;20123;-63
2023/01/18 14:30:06;;;;;;;9.40;4.37;;;4.90;99.90;;;;;;7332363;32;20202;-61
2023/01/18 14:34:27;;;;;;;10.75;4.78;;;4.50;99.90;;;;;;7332260;32;20504;-61
2023/01/18 14:38:29;;;;;;;9.20;4.90;;;4.30;99.90;;;;;;7327949;32;20195;-63
2023/01/18 14:42:33;;;;;;;9.27;5.07;;;4.00;99.90;;;;;;7329566;32;20179;-63
2023/01/18 14:46:36;;;;;;;6.62;5.03;;;4.00;99.90;;;;;;7324480;32;20184;-62
2023/01/18 14:50:44;;;;;;;8.35;4.32;;;3.90;99.90;;;;;;7328994;32;20465;-61
2023/01/18 14:54:54;;;;;;;7.55;4.70;;;3.70;99.90;;;;;;7325595;32;20215;-61
2023/01/18 14:59:01;;;;;;;9.20;4.05;;;3.60;99.90;;;;;;7325841;32;20492;-61
2023/01/18 15:03:11;;;;;;;7.85;4.47;;;3.40;99.90;;;;;;7328184;32;20150;-64
2023/01/18 15:07:18;;;;;;;12.32;4.93;;;3.30;99.90;;;;;;7318904;32;20751;-63
2023/01/18 15:11:23;;;;;;;10.13;4.90;;;3.20;99.90;;;;;;7324089;32;20664;-62
2023/01/18 15:15:29;;;;;;;10.23;5.50;;;3.20;99.90;;;;;;7326709;32;20218;-61
2023/01/18 15:19:42;;;;;;;9.80;4.82;;;3.10;99.90;;;;;;7330369;32;20825;-63
2023/01/18 15:23:45;;;;;;;9.63;4.53;;;3.00;99.90;;;;;;7340797;32;20250;-63
2023/01/18 15:27:52;;;;;;;6.35;4.47;;;3.00;99.90;;;;;;7346610;32;20199;-62
2023/01/18 15:32:25;;;;;;;10.67;5.43;;;2.90;99.90;;;;;;7344777;32;20127;-63
2023/01/18 15:36:27;;;;;;;10.35;5.25;;;2.70;99.90;;;;;;7336644;32;20333;-63
2023/01/18 15:40:30;;;;;;;12.10;5.50;;;2.70;99.90;;;;;;7343939;32;20130;-62
2023/01/18 15:44:46;;;;;;;10.65;5.20;;;2.50;99.90;;;;;;7345893;32;20103;-63
2023/01/18 15:48:55;;;;;;;15.03;7.03;;;2.40;99.90;;;;;;7345554;32;20535;-62
2023/01/18 15:53:08;;;;;;;9.80;5.32;;;2.40;99.90;;;;;;7347642;32;20099;-62
2023/01/18 15:57:16;;;;;;;11.75;5.60;;;2.30;99.90;;;;;;7344703;32;20162;-64
2023/01/18 16:01:20;;;;;;;11.00;5.03;;;2.20;99.90;;;;;;7341034;32;20244;-64
2023/01/18 16:05:25;;;;;;;10.35;5.40;;;2.20;99.90;;;;;;7346731;32;20123;-65
2023/01/18 16:09:27;;;;;;;10.25;5.18;;;2.00;99.90;;;;;;7349358;32;20202;-61
2023/01/18 16:13:38;;;;;;;11.68;5.45;;;1.90;99.90;;;;;;7343756;32;20122;-61
2023/01/18 16:17:42;;;;;;;11.27;5.70;;;1.70;99.90;;;;;;7342692;32;20740;-62
2023/01/18 16:21:47;;;;;;;10.27;4.82;;;1.60;99.90;;;;;;7342097;32;20285;-62
2023/01/18 16:25:51;;;;;;;12.57;5.30;;;1.50;99.90;;;;;;7340326;32;20153;-61
2023/01/18 16:29:55;;;;;;;11.80;5.10;;;1.50;99.90;;;;;;7343734;32;20103;-62
2023/01/18 16:33:57;;;;;;;13.50;5.05;;;1.60;99.90;;;;;;7332213;32;20104;-61
2023/01/18 16:37:58;;;;;;;10.43;4.80;;;1.60;99.90;;;;;;7339252;32;20536;-61
2023/01/18 16:42:02;;;;;;;7.68;4.50;;;1.40;99.90;;;;;;7342149;32;20902;-61
2023/01/18 16:46:03;;;;;;;10.25;4.72;;;1.40;99.90;;;;;;7340257;32;20196;-63
2023/01/18 16:50:15;;;;;;;9.13;4.55;;;1.40;99.90;;;;;;7343847;32;20111;-62
2023/01/18 16:54:17;;;;;;;7.65;4.20;;;1.30;99.90;;;;;;7342159;32;20100;-62
2023/01/18 16:58:20;;;;;;;8.93;4.32;;;1.20;99.90;;;;;;7344804;32;20577;-62
2023/01/18 17:02:21;;;;;;;8.15;4.40;;;1.40;99.90;;;;;;7331725;32;20129;-62
2023/01/18 17:06:25;;;;;;;10.55;4.57;;;1.40;99.90;;;;;;7340855;32;20172;-61
2023/01/18 17:10:27;;;;;;;11.60;4.40;;;1.30;99.90;;;;;;7341398;32;20115;-61
2023/01/18 17:14:28;;;;;;;7.35;4.15;;;1.20;99.90;;;;;;7344485;32;20205;-63
2023/01/18 17:18:30;;;;;;;6.57;3.90;;;1.20;99.90;;;;;;7345844;32;21081;-62
2023/01/18 17:22:32;;;;;;;9.80;3.58;;;1.30;99.90;;;;;;7343631;32;20198;-63
2023/01/18 17:26:34;;;;;;;5.10;3.25;;;1.30;99.90;;;;;;7345786;32;20115;-61
2023/01/18 17:30:37;;;;;;;7.53;3.58;;;1.30;99.90;;;;;;7342660;32;20230;-61
2023/01/18 17:34:38;;;;;;;8.40;3.05;;;1.20;99.90;;;;;;7342867;32;20107;-63
2023/01/18 17:38:40;;;;;;;6.45;3.80;;;1.20;99.90;;;;;;7345268;32;20107;-63
2023/01/18 17:42:42;;;;;;;12.30;4.55;;;1.20;99.90;;;;;;7347152;32;20290;-62
2023/01/18 17:46:43;;;;;;;9.70;5.35;;;1.10;99.90;;;;;;7347804;32;20607;-64
2023/01/18 17:50:45;;;;;;;8.38;4.00;;;1.10;99.90;;;;;;7345432;32;20525;-63
2023/01/18 17:54:47;;;;;;;10.73;4.53;;;1.10;99.90;;;;;;7344689;32;20246;-63
2023/01/18 17:58:49;;;;;;;7.53;4.22;;;1.10;99.90;;;;;;7345500;32;20193;-63
2023/01/18 18:02:52;;;;;;;9.50;5.30;;;1.00;99.90;;;;;;7342304;32;20533;-63
2023/01/18 18:06:57;;;;;;;11.80;5.60;;;1.10;99.90;;;;;;7343619;32;20490;-61
2023/01/18 18:10:59;;;;;;;10.80;5.78;;;1.20;99.90;;;;;;7346321;32;20197;-62
2023/01/18 18:15:02;;;;;;;10.73;6.35;;;1.10;99.90;;;;;;7334555;32;20107;-60
2023/01/18 18:19:04;;;;;;;14.23;6.87;;;1.00;99.90;;;;;;7339135;32;20162;-62
2023/01/18 18:23:06;;;;;;;16.05;7.60;;;0.90;99.90;;;;;;7336337;32;20099;-61
2023/01/18 18:27:08;;;;;;;15.18;7.35;;;0.90;99.90;;;;;;7344521;32;20186;-61
2023/01/18 18:31:14;;;;;;;13.70;7.20;;;1.00;99.90;;;;;;7335176;32;20206;-62
2023/01/18 18:35:16;;;;;;;13.43;8.00;;;1.00;99.90;;;;;;7335946;32;20116;-62
2023/01/18 18:39:27;;;;;;;14.20;7.55;;;0.90;99.90;;;;;;7334762;32;20111;-62
2023/01/18 18:43:29;;;;;;;15.38;8.50;;;0.90;99.90;;;;;;7338289;32;20159;-61
2023/01/18 18:47:31;;;;;;;19.77;8.57;;;0.90;99.90;;;;;;7341462;32;20111;-60
2023/01/18 18:51:35;;;;;;;16.42;8.07;;;0.90;99.90;;;;;;7345551;32;20149;-60
2023/01/18 18:55:37;;;;;;;12.27;7.30;;;0.90;99.90;;;;;;7340728;32;20103;-61
2023/01/18 18:59:39;;;;;;;13.13;7.00;;;0.80;99.90;;;;;;7336306;32;20103;-61
2023/01/18 19:03:41;;;;;;;11.45;7.37;;;0.80;99.90;;;;;;7334751;32;20095;-61
2023/01/18 19:07:43;;;;;;;11.40;6.57;;;0.80;99.90;;;;;;7336627;32;20103;-61
2023/01/18 19:11:45;;;;;;;9.50;6.25;;;0.90;99.90;;;;;;7338055;32;21046;-62
2023/01/18 19:15:55;;;;;;;14.45;6.90;;;0.80;99.90;;;;;;7328383;32;20331;-59
2023/01/18 19:19:58;;;;;;;13.70;6.28;;;0.80;99.90;;;;;;7326795;32;20215;-60
2023/01/18 19:23:59;;;;;;;10.18;5.70;;;0.80;99.90;;;;;;7331642;32;20123;-60
2023/01/18 19:28:01;;;;;;;12.45;5.65;;;0.80;99.90;;;;;;7329296;32;20103;-60
2023/01/18 19:32:04;;;;;;;9.75;5.68;;;0.80;99.90;;;;;;7327632;32;20145;-61
2023/01/18 19:36:12;;;;;;;8.35;5.37;;;0.90;99.90;;;;;;7337420;32;20096;-61
2023/01/18 19:40:15;;;;;;;12.13;6.32;;;0.80;99.90;;;;;;7326949;32;20124;-60
2023/01/18 19:44:17;;;;;;;12.48;6.28;;;0.70;99.90;;;;;;7332189;32;20100;-61
2023/01/18 19:48:18;;;;;;;10.30;6.28;;;0.70;99.90;;;;;;7326932;32;20617;-60
2023/01/18 19:52:20;;;;;;;10.05;5.82;;;0.70;99.90;;;;;;7324743;32;20103;-60
2023/01/18 19:56:27;;;;;;;11.10;5.53;;;0.70;99.90;;;;;;7326457;32;20099;-61
2023/01/18 20:00:29;;;;;;;;;;;0.50;99.90;;;;;;7327918;32;20199;-60
2023/01/18 20:04:32;;;;;;;9.75;5.70;;;0.60;99.90;;;;;;7327239;32;20114;-61
2023/01/18 20:08:34;;;;;;;11.93;5.60;;;0.70;99.90;;;;;;7327912;32;20141;-61
2023/01/18 20:12:37;;;;;;;10.82;5.57;;;0.70;99.90;;;;;;7322213;32;20684;-61
2023/01/18 20:16:38;;;;;;;9.35;5.72;;;0.60;99.90;;;;;;7328764;32;20226;-59
2023/01/18 20:20:40;;;;;;;9.75;5.65;;;0.70;99.90;;;;;;7340183;32;20260;-60
2023/01/18 20:24:43;;;;;;;13.27;5.78;;;0.60;99.90;;;;;;7348229;32;20128;-59
2023/01/18 20:28:44;;;;;;;10.77;5.37;;;0.60;99.90;;;;;;7344670;32;20165;-60
2023/01/18 20:32:46;;;;;;;9.70;5.28;;;0.80;99.90;;;;;;7350653;32;20119;-60
2023/01/18 20:36:48;;;;;;;10.23;5.40;;;0.80;99.90;;;;;;7350766;32;20553;-62
2023/01/18 20:40:50;;;;;;;9.63;5.25;;;0.80;99.90;;;;;;7346354;32;20431;-60
2023/01/18 20:44:59;;;;;;;10.15;5.30;;;0.90;99.90;;;;;;7353068;32;20663;-59
2023/01/18 20:49:02;;;;;;;8.65;5.07;;;0.80;99.90;;;;;;7342545;32;20225;-60
2023/01/18 20:53:04;;;;;;;8.77;4.82;;;1.00;99.90;;;;;;7348007;32;20160;-62
2023/01/18 20:57:05;;;;;;;12.88;4.80;;;1.00;99.90;;;;;;7344025;32;20166;-61
2023/01/18 21:01:15;;;;;;;9.55;5.32;;;1.10;99.90;;;;;;7348492;32;20839;-60
2023/01/18 21:05:17;;;;;;;9.43;5.25;;;1.00;99.90;;;;;;7339767;32;20178;-62
2023/01/18 21:09:19;;;;;;;10.35;5.32;;;1.00;99.90;;;;;;7336529;32;21576;-60
2023/01/18 21:13:20;;;;;;;12.27;5.55;;;1.10;99.90;;;;;;7337121;32;20129;-61
2023/01/18 21:17:22;;;;;;;9.65;5.50;;;1.00;99.90;;;;;;7342680;32;20630;-61
2023/01/18 21:21:30;;;;;;;11.18;6.15;;;0.90;99.90;;;;;;7335955;32;20120;-62
2023/01/18 21:25:31;;;;;;;10.70;5.75;;;1.00;99.90;;;;;;7336508;32;20155;-61
2023/01/18 21:29:33;;;;;;;9.27;5.40;;;1.10;99.90;;;;;;7334541;32;20551;-61
2023/01/18 21:33:35;;;;;;;9.25;5.90;;;1.20;99.90;;;;;;7332104;32;20634;-63
2023/01/18 21:37:36;;;;;;;11.63;7.03;;;1.30;99.90;;;;;;7339233;32;20282;-61
2023/01/18 21:45:59;;;;;;;12.25;6.65;;;1.30;99.90;;;;;;7345103;32;20095;-62
2023/01/18 21:54:21;;;;;;;13.38;6.78;;;1.40;99.90;;;;;;7334344;32;20103;-61
2023/01/18 22:02:43;;;;;;;16.08;6.95;;;1.50;99.90;;;;;;7338965;32;20237;-62